createdAt,value
2019-04-20T00:00:09.431Z,5.9979
2019-04-20T00:02:18.876Z,5.9552
2019-04-20T00:04:29.039Z,5.6294
2019-04-20T00:06:41.263Z,6.1261
2019-04-20T00:08:43.128Z,6.3077
2019-04-20T00:10:56.935Z,6.0834
2019-04-20T00:13:09.163Z,5.6855
2019-04-20T00:15:05.264Z,5.8991
2019-04-20T00:17:09.517Z,6.0407
2019-04-20T00:19:15.346Z,5.4025
2019-04-20T00:21:22.545Z,5.3464
2019-04-20T00:23:33.772Z,5.5173
2019-04-20T00:25:49.994Z,5.2770
2019-04-20T00:28:04.674Z,5.1782
2019-04-20T00:30:06.746Z,5.3624
2019-04-20T00:32:13.420Z,5.2770
2019-04-20T00:34:18.318Z,5.0793
2019-04-20T00:36:20.168Z,4.8230
2019-04-20T00:38:28.005Z,5.3891
2019-04-20T00:40:32.670Z,5.2770
2019-04-20T00:42:43.332Z,5.2770
2019-04-20T00:44:49.626Z,5.4879
2019-04-20T00:47:06.878Z,5.5440
2019-04-20T00:49:19.145Z,5.6001
2019-04-20T00:53:30.295Z,5.1354
2019-04-20T00:55:29.584Z,5.1648
2019-04-20T00:57:41.875Z,5.1488
2019-04-20T01:00:09.295Z,5.2342
2019-04-20T01:02:14.231Z,5.1488
2019-04-20T01:04:20.144Z,5.2342
2019-04-20T01:06:28.494Z,5.3037
2019-04-20T01:08:21.234Z,5.3330
2019-04-20T01:10:28.307Z,5.8564
2019-04-20T01:12:35.609Z,5.2770
2019-04-20T01:14:52.090Z,5.2636
2019-04-20T01:16:59.733Z,5.6161
2019-04-20T01:19:01.924Z,5.3891
2019-04-20T01:21:13.139Z,5.2075
2019-04-20T01:23:19.078Z,5.0366
2019-04-20T01:25:29.976Z,4.7242
2019-04-20T01:27:42.435Z,4.5426
2019-04-20T01:29:46.122Z,5.0233
2019-04-20T01:32:02.295Z,4.6975
2019-04-20T01:34:03.168Z,4.5987
2019-04-20T01:36:25.432Z,4.4144
2019-04-20T01:38:30.509Z,4.3717
2019-04-20T01:40:27.378Z,4.3450
2019-04-20T01:42:32.094Z,4.2008
2019-04-20T01:44:41.220Z,4.2275
2019-04-20T01:46:49.852Z,4.5827
2019-04-20T01:48:54.857Z,4.3584
2019-04-20T01:51:08.307Z,4.1714
2019-04-20T01:53:16.440Z,4.3023
2019-04-20T01:55:33.628Z,4.2596
2019-04-20T01:57:32.794Z,4.6815
2019-04-20T01:59:46.075Z,4.4705
2019-04-20T02:01:43.896Z,4.4839
2019-04-20T02:03:53.456Z,4.5560
2019-04-20T02:06:04.478Z,4.8924
2019-04-20T02:08:12.841Z,5.2075
2019-04-20T02:10:16.601Z,5.1648
2019-04-20T02:12:26.091Z,5.8431
2019-04-20T02:14:37.704Z,5.7282
2019-04-20T02:16:45.233Z,5.7149
2019-04-20T02:19:06.524Z,5.5173
2019-04-20T02:21:18.360Z,5.1221
2019-04-20T02:23:20.042Z,4.9512
2019-04-20T02:25:12.510Z,4.5132
2019-04-20T02:27:19.707Z,4.4438
2019-04-20T02:29:46.009Z,4.8657
2019-04-20T02:32:11.777Z,4.7536
2019-04-20T02:34:19.883Z,5.0500
2019-04-20T02:36:38.175Z,5.1488
2019-04-20T02:38:54.236Z,5.3197
2019-04-20T02:40:47.372Z,5.1354
2019-04-20T02:43:08.081Z,4.9084
2019-04-20T02:45:13.111Z,4.4999
2019-04-20T02:49:37.657Z,4.2889
2019-04-20T02:51:33.089Z,4.0887
2019-04-20T02:53:41.580Z,4.3290
2019-04-20T02:55:51.787Z,3.8617
2019-04-20T03:01:57.331Z,3.9338
2019-04-20T03:03:51.089Z,4.0887
2019-04-20T03:06:08.659Z,3.9738
2019-04-20T03:08:22.395Z,3.6934
2019-04-20T03:10:44.543Z,4.0887
2019-04-20T03:12:44.868Z,4.0726
2019-04-20T03:14:47.768Z,4.0166
2019-04-20T03:17:03.288Z,3.8911
2019-04-20T03:19:03.112Z,4.3450
2019-04-20T03:21:27.284Z,4.2142
2019-04-20T03:23:52.654Z,4.7375
2019-04-20T03:25:39.709Z,5.3891
2019-04-20T03:27:41.426Z,4.7108
2019-04-20T03:29:54.923Z,4.1714
2019-04-20T03:32:27.898Z,4.0166
2019-04-20T03:34:44.790Z,3.7789
2019-04-20T03:36:25.513Z,4.0166
2019-04-20T03:38:27.243Z,4.1020
2019-04-20T03:40:29.386Z,4.0166
2019-04-20T03:42:24.805Z,4.1287
2019-04-20T03:44:32.127Z,4.0887
2019-04-20T03:46:44.841Z,4.0726
2019-04-20T03:49:01.351Z,3.8350
2019-04-20T03:51:14.902Z,3.5386
2019-04-20T03:53:22.930Z,3.5653
2019-04-20T03:55:26.387Z,3.5092
2019-04-20T03:57:41.237Z,4.0459
2019-04-20T03:59:51.002Z,4.0326
2019-04-20T04:02:14.788Z,4.4999
2019-04-20T04:04:09.474Z,4.4011
2019-04-20T04:06:08.346Z,4.3290
2019-04-20T04:08:14.947Z,4.6975
2019-04-20T04:10:25.908Z,6.2650
2019-04-20T04:12:29.731Z,5.6561
2019-04-20T04:14:30.391Z,5.3624
2019-04-20T04:16:41.903Z,5.6001
2019-04-20T04:18:46.066Z,5.6161
2019-04-20T04:20:57.398Z,5.3330
2019-04-20T04:23:19.092Z,4.9912
2019-04-20T04:25:20.973Z,4.6548
2019-04-20T04:27:40.413Z,4.8096
2019-04-20T04:29:47.119Z,4.7375
2019-04-20T04:32:05.488Z,6.0834
2019-04-20T04:34:05.843Z,5.3891
2019-04-20T04:36:10.016Z,4.9084
2019-04-20T04:38:28.876Z,4.4011
2019-04-20T04:40:42.779Z,4.4144
2019-04-20T04:42:48.270Z,4.0326
2019-04-20T04:44:43.265Z,3.7789
2019-04-20T04:46:53.425Z,3.6934
2019-04-20T04:48:53.294Z,3.6934
2019-04-20T04:51:05.290Z,3.6213
2019-04-20T04:53:17.180Z,3.7362
2019-04-20T04:55:28.627Z,3.7068
2019-04-20T04:57:26.362Z,4.0593
2019-04-20T04:59:29.851Z,3.9738
2019-04-20T05:01:35.312Z,3.9178
2019-04-20T05:04:02.892Z,3.8056
2019-04-20T05:06:06.631Z,3.8350
2019-04-20T05:08:08.881Z,3.8750
2019-04-20T05:10:06.055Z,4.2008
2019-04-20T05:12:15.228Z,4.1447
2019-04-20T05:14:24.429Z,4.0593
2019-04-20T05:16:46.056Z,4.4278
2019-04-20T05:19:11.552Z,4.2889
2019-04-20T05:21:06.295Z,4.1287
2019-04-20T05:23:11.543Z,4.2596
2019-04-20T05:25:22.331Z,4.0459
2019-04-20T05:27:33.600Z,4.3290
2019-04-20T05:29:25.475Z,4.2889
2019-04-20T05:31:39.695Z,4.9352
2019-04-20T05:34:06.796Z,5.2636
2019-04-20T05:36:05.658Z,5.2342
2019-04-20T05:38:22.969Z,5.4025
2019-04-20T05:40:29.213Z,5.2903
2019-04-20T05:42:35.649Z,5.4746
2019-04-20T05:44:48.544Z,5.3464
2019-04-20T05:46:59.734Z,5.1915
2019-04-20T05:49:03.168Z,5.3330
2019-04-20T05:51:10.548Z,5.3891
2019-04-20T05:53:19.349Z,5.5013
2019-04-20T05:55:33.109Z,5.7549
2019-04-20T05:57:50.759Z,7.9206
2019-04-20T05:59:59.424Z,10.1957
2019-04-20T06:02:03.695Z,10.8339
2019-04-20T06:04:01.635Z,11.5549
2019-04-20T06:06:15.161Z,11.8406
2019-04-20T06:08:32.090Z,11.1170
2019-04-20T06:10:31.883Z,12.4201
2019-04-20T06:12:40.268Z,12.6310
2019-04-20T06:14:46.786Z,12.9969
2019-04-20T06:17:02.818Z,14.2012
2019-04-20T06:19:24.220Z,13.3680
2019-04-20T06:21:29.099Z,14.5830
2019-04-20T06:23:33.762Z,14.6685
2019-04-20T06:25:44.339Z,15.0904
2019-04-20T06:27:48.938Z,14.6551
2019-04-20T06:29:51.357Z,15.0504
2019-04-20T06:32:05.203Z,15.4189
2019-04-20T06:36:27.567Z,15.7713
2019-04-20T06:38:44.357Z,15.5310
2019-04-20T06:41:09.050Z,15.5737
2019-04-20T06:42:50.348Z,16.2387
2019-04-20T06:44:52.390Z,15.0210
2019-04-20T06:49:16.964Z,16.4496
2019-04-20T06:51:22.306Z,16.8608
2019-04-20T06:53:42.519Z,17.2721
2019-04-20T06:55:42.997Z,16.9596
2019-04-20T06:57:45.299Z,17.0157
2019-04-20T06:59:56.129Z,16.4923
2019-04-20T07:02:15.289Z,16.7754
2019-04-20T07:04:33.498Z,15.2079
2019-04-20T07:06:35.352Z,16.4790
2019-04-20T07:08:58.749Z,16.3375
2019-04-20T07:10:43.918Z,16.6365
2019-04-20T07:12:45.048Z,17.5124
2019-04-20T07:14:47.447Z,17.8355
2019-04-20T07:17:24.434Z,17.1012
2019-04-20T07:19:16.888Z,16.1399
2019-04-20T07:21:37.549Z,17.7234
2019-04-20T07:23:33.946Z,17.9370
2019-04-20T07:25:42.330Z,18.0785
2019-04-20T07:27:49.068Z,17.2293
2019-04-20T07:29:57.938Z,17.7100
2019-04-20T07:32:05.104Z,16.9463
2019-04-20T07:34:15.608Z,18.3589
2019-04-20T07:36:30.576Z,17.6806
2019-04-20T07:38:40.181Z,18.6313
2019-04-20T07:40:39.478Z,17.1439
2019-04-20T07:42:51.881Z,17.6673
2019-04-20T07:45:01.413Z,17.0157
2019-04-20T07:47:13.989Z,17.2587
2019-04-20T07:49:22.472Z,16.2814
2019-04-20T07:51:12.471Z,17.9370
2019-04-20T07:53:32.145Z,18.1773
2019-04-20T07:57:45.959Z,17.2721
2019-04-20T08:00:01.720Z,17.5818
2019-04-20T08:02:15.992Z,17.0291
2019-04-20T08:06:11.599Z,17.6940
2019-04-20T08:08:30.814Z,19.3095
2019-04-20T08:10:47.006Z,19.9744
2019-04-20T08:12:58.384Z,18.6152
2019-04-20T08:15:03.739Z,19.7314
2019-04-20T08:17:22.940Z,19.4377
2019-04-20T08:19:17.369Z,18.9544
2019-04-20T08:21:32.853Z,19.9157
2019-04-20T08:23:33.473Z,19.6754
2019-04-20T08:25:37.318Z,18.6019
2019-04-20T08:27:33.804Z,19.9023
2019-04-20T08:29:51.469Z,19.4217
2019-04-20T08:32:10.388Z,18.8129
2019-04-20T08:34:18.617Z,20.0305
2019-04-20T08:36:29.970Z,20.3269
2019-04-20T08:38:58.343Z,18.1052
2019-04-20T08:40:43.628Z,19.1947
2019-04-20T08:43:02.348Z,20.0038
2019-04-20T08:47:20.579Z,20.4257
2019-04-20T08:49:22.096Z,20.0305
2019-04-20T08:51:22.691Z,18.3322
2019-04-20T08:53:47.079Z,20.0732
2019-04-20T08:55:40.247Z,21.3470
2019-04-20T08:57:29.307Z,20.2976
2019-04-20T08:59:35.019Z,21.4458
2019-04-20T09:01:40.757Z,20.0172
2019-04-20T09:03:56.486Z,18.8983
2019-04-20T09:06:03.433Z,20.6394
2019-04-20T09:08:11.310Z,20.6126
2019-04-20T09:10:34.731Z,20.3697
2019-04-20T09:12:36.821Z,19.3095
2019-04-20T09:14:28.707Z,18.9544
2019-04-20T09:16:42.414Z,19.6914
2019-04-20T09:18:50.264Z,20.1293
2019-04-20T09:20:59.287Z,21.4591
2019-04-20T09:23:16.645Z,22.4659
2019-04-20T09:25:43.818Z,20.1721
2019-04-20T09:27:25.329Z,21.0800
2019-04-20T09:29:34.585Z,20.4551
2019-04-20T09:31:43.636Z,21.5019
2019-04-20T09:33:57.084Z,21.1627
2019-04-20T09:36:03.317Z,20.9491
2019-04-20T09:38:14.448Z,22.1988
2019-04-20T09:40:29.227Z,22.6234
2019-04-20T09:42:17.138Z,21.3897
2019-04-20T09:44:24.581Z,21.0479
2019-04-20T09:46:30.929Z,21.3764
2019-04-20T09:48:44.048Z,22.2816
2019-04-20T09:51:05.119Z,21.1360
2019-04-20T09:53:10.185Z,21.5312
2019-04-20T09:55:18.552Z,21.0212
2019-04-20T09:57:30.970Z,21.8277
2019-04-20T09:59:40.072Z,21.1788
2019-04-20T10:01:39.345Z,21.6594
2019-04-20T10:03:38.833Z,22.1988
2019-04-20T10:05:47.471Z,22.1427
2019-04-20T10:07:55.901Z,22.4098
2019-04-20T10:10:00.815Z,21.6461
2019-04-20T10:12:05.579Z,21.0800
2019-04-20T10:14:10.306Z,21.2055
2019-04-20T10:16:13.820Z,22.8904
2019-04-20T10:18:17.515Z,21.8437
2019-04-20T10:20:28.340Z,23.4432
2019-04-20T10:22:30.884Z,22.9198
2019-04-20T10:24:34.736Z,21.6594
2019-04-20T10:26:38.686Z,21.8704
2019-04-20T10:28:43.523Z,22.8077
2019-04-20T10:30:48.364Z,21.3176
2019-04-20T10:32:54.069Z,21.5579
2019-04-20T10:34:59.041Z,22.9759
2019-04-20T10:37:03.804Z,21.9692
2019-04-20T10:39:08.704Z,22.0119
2019-04-20T10:41:20.442Z,22.1000
2019-04-20T10:43:21.895Z,21.6167
2019-04-20T10:45:26.693Z,22.5219
2019-04-20T10:47:30.263Z,22.0413
2019-04-20T10:49:33.675Z,22.0840
2019-04-20T10:51:37.820Z,21.9425
2019-04-20T10:53:42.378Z,22.7916
2019-04-20T10:55:47.315Z,22.3243
2019-04-20T10:57:51.409Z,21.1067
2019-04-20T10:59:55.426Z,21.4164
2019-04-20T11:01:59.729Z,22.0680
2019-04-20T11:04:03.132Z,22.8077
2019-04-20T11:06:06.796Z,23.1468
2019-04-20T11:08:10.676Z,23.1895
2019-04-20T11:10:21.972Z,23.3310
2019-04-20T11:12:30.510Z,23.5126
2019-04-20T11:14:40.410Z,23.7983
2019-04-20T11:16:46.704Z,23.9105
2019-04-20T11:18:51.323Z,22.0253
2019-04-20T11:20:55.652Z,23.8411
2019-04-20T11:22:58.197Z,22.6795
2019-04-20T11:25:04.163Z,23.2456
2019-04-20T11:27:07.982Z,22.5673
2019-04-20T11:29:11.473Z,23.0774
2019-04-20T11:31:16.467Z,23.2456
2019-04-20T11:33:20.389Z,23.0774
2019-04-20T11:35:27.792Z,24.4766
2019-04-20T11:37:33.158Z,23.7983
2019-04-20T11:39:37.028Z,22.8771
2019-04-20T11:41:41.503Z,22.3964
2019-04-20T11:43:44.979Z,24.1402
2019-04-20T11:45:48.895Z,22.8771
2019-04-20T11:47:53.489Z,23.5126
2019-04-20T11:49:57.624Z,22.9332
2019-04-20T11:52:01.719Z,23.9532
2019-04-20T11:54:06.185Z,24.6208
2019-04-20T11:56:14.484Z,24.9733
2019-04-20T11:58:19.618Z,24.2950
2019-04-20T12:00:25.199Z,23.6702
2019-04-20T12:02:34.890Z,23.7850
2019-04-20T12:04:45.668Z,24.0974
2019-04-20T12:06:46.699Z,23.7850
2019-04-20T12:08:50.153Z,23.7850
2019-04-20T12:10:59.546Z,24.0093
2019-04-20T12:13:04.182Z,24.0841
2019-04-20T12:15:08.618Z,23.6862
2019-04-20T12:17:13.242Z,24.0227
2019-04-20T12:19:17.029Z,23.7289
2019-04-20T12:21:21.067Z,23.8544
2019-04-20T12:23:24.610Z,23.8117
2019-04-20T12:25:29.063Z,24.4339
2019-04-20T12:27:34.915Z,24.4339
2019-04-20T12:29:38.647Z,23.1762
2019-04-20T12:31:44.405Z,24.6075
2019-04-20T12:33:52.507Z,25.9239
2019-04-20T12:35:58.263Z,24.1535
2019-04-20T12:38:03.015Z,24.8318
2019-04-20T12:40:07.165Z,24.2657
2019-04-20T12:42:11.217Z,23.7556
2019-04-20T12:44:15.406Z,23.2750
2019-04-20T12:46:21.509Z,24.2950
2019-04-20T12:48:26.448Z,24.9172
2019-04-20T12:50:30.077Z,25.2430
2019-04-20T12:52:34.676Z,23.7850
2019-04-20T12:54:41.171Z,24.8051
2019-04-20T12:56:46.687Z,24.9599
2019-04-20T12:58:51.534Z,23.2189
2019-04-20T13:00:56.258Z,24.1402
2019-04-20T13:03:01.114Z,23.9105
2019-04-20T13:05:04.600Z,24.5060
2019-04-20T13:07:08.021Z,24.8184
2019-04-20T13:09:12.557Z,24.5060
2019-04-20T13:11:18.331Z,24.8184
2019-04-20T13:13:22.739Z,25.6542
2019-04-20T13:15:26.594Z,25.4833
2019-04-20T13:17:30.763Z,25.1869
2019-04-20T13:19:35.406Z,24.9733
2019-04-20T13:21:39.142Z,24.6208
2019-04-20T13:23:43.199Z,24.7063
2019-04-20T13:25:46.688Z,24.6208
2019-04-20T13:27:50.986Z,23.7423
2019-04-20T13:29:55.963Z,24.2657
2019-04-20T13:32:00.181Z,24.8318
2019-04-20T13:34:05.407Z,25.0748
2019-04-20T13:36:10.198Z,25.7263
2019-04-20T13:38:14.139Z,24.8318
2019-04-20T13:40:17.745Z,25.1869
2019-04-20T13:42:25.150Z,24.3217
2019-04-20T13:44:33.069Z,25.1308
2019-04-20T13:46:36.798Z,25.3845
2019-04-20T13:48:40.393Z,25.2003
2019-04-20T13:50:44.266Z,25.3552
2019-04-20T13:52:48.938Z,26.4607
2019-04-20T13:54:53.589Z,25.8091
2019-04-20T13:56:59.653Z,26.8158
2019-04-20T13:59:03.763Z,24.7330
2019-04-20T14:01:08.217Z,25.2296
2019-04-20T14:03:12.111Z,25.8812
2019-04-20T14:05:16.856Z,25.4273
2019-04-20T14:07:22.016Z,24.9039
2019-04-20T14:09:25.640Z,25.5394
2019-04-20T14:11:29.725Z,24.4926
2019-04-20T14:13:40.360Z,24.9039
2019-04-20T14:15:42.896Z,24.9866
2019-04-20T14:17:47.146Z,25.4700
2019-04-20T14:19:50.835Z,25.0160
2019-04-20T14:21:54.229Z,25.1175
2019-04-20T14:23:59.062Z,25.7691
2019-04-20T14:26:03.060Z,25.3979
2019-04-20T14:28:07.209Z,26.3752
2019-04-20T14:30:11.082Z,25.8652
2019-04-20T14:32:14.788Z,25.7958
2019-04-20T14:34:18.257Z,25.5127
2019-04-20T14:36:24.096Z,24.9306
2019-04-20T14:38:28.533Z,25.2991
2019-04-20T14:40:32.457Z,25.0748
2019-04-20T14:42:42.782Z,25.7397
2019-04-20T14:44:45.864Z,25.1602
2019-04-20T14:46:50.000Z,24.9733
2019-04-20T14:48:54.515Z,25.7691
2019-04-20T14:50:59.285Z,25.1015
2019-04-20T14:53:02.780Z,26.2497
2019-04-20T14:55:06.194Z,24.7196
2019-04-20T14:57:11.600Z,24.3378
2019-04-20T14:59:15.681Z,24.6075
2019-04-20T15:01:20.523Z,24.8745
2019-04-20T15:03:24.263Z,25.6275
2019-04-20T15:05:28.869Z,25.0027
2019-04-20T15:07:33.015Z,25.1602
2019-04-20T15:09:38.741Z,24.7757
2019-04-20T15:11:44.664Z,25.3712
2019-04-20T15:13:48.969Z,24.7757
2019-04-20T15:15:54.863Z,25.5261
2019-04-20T15:17:59.611Z,25.7691
2019-04-20T15:20:03.536Z,26.5915
2019-04-20T15:22:07.528Z,25.3151
2019-04-20T15:24:11.561Z,25.6970
2019-04-20T15:26:16.103Z,26.3058
2019-04-20T15:28:20.668Z,25.5127
2019-04-20T15:30:24.873Z,26.5461
2019-04-20T15:32:29.188Z,25.2003
2019-04-20T15:34:32.996Z,25.5528
2019-04-20T15:36:38.107Z,25.8812
2019-04-20T15:38:42.942Z,25.9934
2019-04-20T15:40:46.955Z,27.3392
2019-04-20T15:42:59.020Z,27.2564
2019-04-20T15:44:58.752Z,25.8652
2019-04-20T15:47:03.511Z,25.8091
2019-04-20T15:49:08.243Z,24.5327
2019-04-20T15:51:14.008Z,24.5647
2019-04-20T15:53:19.629Z,24.9733
2019-04-20T15:55:27.407Z,24.8611
2019-04-20T15:57:34.470Z,24.7890
2019-04-20T15:59:38.330Z,24.2950
2019-04-20T16:01:41.781Z,24.8745
2019-04-20T16:03:45.735Z,25.0427
2019-04-20T16:05:49.388Z,23.8838
2019-04-20T16:07:56.934Z,24.1402
2019-04-20T16:10:01.309Z,24.6902
2019-04-20T16:12:04.777Z,24.6342
2019-04-20T16:14:09.067Z,24.6208
2019-04-20T16:16:14.013Z,25.0027
2019-04-20T16:18:18.789Z,24.6902
2019-04-20T16:20:23.975Z,24.8451
2019-04-20T16:22:28.983Z,24.9733
2019-04-20T16:24:33.881Z,23.8544
2019-04-20T16:26:38.061Z,25.4273
2019-04-20T16:28:41.683Z,23.8544
2019-04-20T16:30:45.522Z,24.1802
2019-04-20T16:32:48.243Z,24.0654
2019-04-20T16:34:52.765Z,24.5647
2019-04-20T16:36:58.070Z,24.4339
2019-04-20T16:39:02.122Z,23.9105
2019-04-20T16:41:06.583Z,23.9960
2019-04-20T16:43:21.124Z,23.6995
2019-04-20T16:45:19.292Z,24.3778
2019-04-20T16:47:23.973Z,24.0387
2019-04-20T16:49:30.652Z,24.7890
2019-04-20T16:51:34.743Z,24.6342
2019-04-20T16:53:39.456Z,24.0654
2019-04-20T16:55:43.083Z,23.8117
2019-04-20T16:57:49.236Z,23.4432
2019-04-20T16:59:56.109Z,23.2750
2019-04-20T17:02:02.340Z,23.4298
2019-04-20T17:04:09.796Z,23.9532
2019-04-20T17:06:14.312Z,23.7850
2019-04-20T17:08:18.753Z,23.0186
2019-04-20T17:10:23.715Z,22.9198
2019-04-20T17:12:28.278Z,23.3577
2019-04-20T17:14:31.875Z,23.0774
2019-04-20T17:16:35.539Z,23.2029
2019-04-20T17:18:39.329Z,22.7489
2019-04-20T17:20:44.336Z,22.4098
2019-04-20T17:22:48.603Z,22.8077
2019-04-20T17:24:53.618Z,22.5353
2019-04-20T17:26:57.209Z,21.8704
2019-04-20T17:29:01.878Z,22.0840
2019-04-20T17:31:05.382Z,21.9265
2019-04-20T17:33:10.229Z,21.8704
2019-04-20T17:35:27.684Z,21.8009
2019-04-20T17:37:22.644Z,21.4164
2019-04-20T17:39:37.025Z,21.2909
2019-04-20T17:41:59.429Z,21.0052
2019-04-20T17:44:00.256Z,20.5512
2019-04-20T17:46:02.896Z,20.4685
2019-04-20T17:48:14.444Z,19.5926
2019-04-20T17:50:20.156Z,19.6193
2019-04-20T17:52:42.957Z,18.4310
2019-04-20T17:54:27.288Z,17.8355
2019-04-20T17:56:30.744Z,17.5952
2019-04-20T17:58:36.774Z,17.8355
2019-04-20T18:00:47.043Z,17.6806
2019-04-20T18:03:13.256Z,17.0291
2019-04-20T18:05:37.269Z,17.0291
2019-04-20T18:07:35.449Z,15.9716
2019-04-20T18:09:45.470Z,16.1826
2019-04-20T18:11:37.321Z,15.0904
2019-04-20T18:13:37.826Z,14.6258
2019-04-20T18:15:57.493Z,13.8621
2019-04-20T18:18:09.400Z,13.6057
2019-04-20T18:19:58.743Z,12.9568
2019-04-20T18:22:03.565Z,12.2625
2019-04-20T18:24:14.368Z,12.0222
2019-04-20T18:26:38.212Z,11.9100
2019-04-20T18:28:46.492Z,11.6403
2019-04-20T18:30:41.697Z,12.8420
2019-04-20T18:32:41.156Z,11.8112
2019-04-20T18:34:52.365Z,12.0649
2019-04-20T18:36:54.505Z,13.3093
2019-04-20T18:39:04.286Z,12.1931
2019-04-20T18:41:14.488Z,11.3706
2019-04-20T18:43:20.499Z,11.5282
2019-04-20T18:45:40.818Z,11.6110
2019-04-20T18:49:51.813Z,12.7165
2019-04-20T18:51:49.826Z,14.0169
2019-04-20T18:53:53.917Z,15.3067
2019-04-20T18:56:00.603Z,13.6057
2019-04-20T18:58:07.030Z,14.0890
2019-04-20T19:00:18.075Z,13.0529
2019-04-20T19:02:26.927Z,12.5189
2019-04-20T19:04:28.086Z,12.7031
2019-04-20T19:06:31.854Z,11.7418
2019-04-20T19:08:40.429Z,12.9568
2019-04-20T19:10:54.168Z,13.8621
2019-04-20T19:13:00.952Z,12.5883
2019-04-20T19:15:20.379Z,11.4134
2019-04-20T19:17:18.862Z,11.4855
2019-04-20T19:19:28.642Z,12.2332
2019-04-20T19:21:27.139Z,11.5549
2019-04-20T19:23:30.536Z,11.2318
2019-04-20T19:25:37.464Z,10.5108
2019-04-20T19:27:48.883Z,10.1263
2019-04-20T19:29:59.858Z,9.7871
2019-04-20T19:32:19.433Z,10.9033
2019-04-20T19:34:26.412Z,10.2945
2019-04-20T19:36:33.389Z,9.5735
2019-04-20T19:38:41.789Z,10.0408
2019-04-20T19:40:47.980Z,9.5468
2019-04-20T19:42:59.942Z,9.6456
2019-04-20T19:45:25.074Z,11.6670
2019-04-20T19:47:21.072Z,12.5750
2019-04-20T19:49:23.004Z,11.9100
2019-04-20T19:51:40.866Z,11.8673
2019-04-20T19:53:48.797Z,12.2332
2019-04-20T19:55:52.955Z,12.1210
2019-04-20T19:58:02.479Z,11.4561
2019-04-20T19:59:56.724Z,11.6243
2019-04-20T20:02:01.393Z,14.1024
2019-04-20T20:04:09.239Z,13.6484
2019-04-20T20:06:23.848Z,12.9969
2019-04-20T20:08:27.233Z,12.7859
2019-04-20T20:10:35.548Z,13.2826
2019-04-20T20:12:41.206Z,13.5069
2019-04-20T20:14:50.021Z,14.0890
2019-04-20T20:17:08.660Z,12.1931
2019-04-20T20:19:12.176Z,12.0222
2019-04-20T20:21:23.628Z,11.8807
2019-04-20T20:23:21.757Z,11.7979
2019-04-20T20:25:30.744Z,11.5549
2019-04-20T20:27:46.937Z,11.3706
2019-04-20T20:29:47.297Z,11.2024
2019-04-20T20:32:01.811Z,12.1771
2019-04-20T20:34:12.094Z,13.8193
2019-04-20T20:36:13.957Z,12.4201
2019-04-20T20:38:22.405Z,11.6537
2019-04-20T20:40:29.977Z,11.2318
2019-04-20T20:42:51.112Z,11.4294
2019-04-20T20:44:51.713Z,10.7218
2019-04-20T20:46:55.090Z,10.4120
2019-04-20T20:49:16.179Z,12.7298
2019-04-20T20:51:28.465Z,12.1771
2019-04-20T20:53:22.961Z,12.9408
2019-04-20T20:55:33.529Z,13.3814
2019-04-20T20:57:44.841Z,12.8847
2019-04-20T20:59:54.789Z,13.2265
2019-04-20T21:02:03.664Z,13.2532
2019-04-20T21:04:00.496Z,11.9955
2019-04-20T21:06:05.514Z,12.3747
2019-04-20T21:08:08.999Z,12.6177
2019-04-20T21:10:15.320Z,11.9234
2019-04-20T21:12:22.327Z,11.5415
2019-04-20T21:14:29.915Z,10.6924
2019-04-20T21:16:42.527Z,9.7311
2019-04-20T21:19:01.048Z,9.3065
2019-04-20T21:21:07.627Z,9.0822
2019-04-20T21:23:15.365Z,8.7671
2019-04-20T21:25:10.807Z,9.2370
2019-04-20T21:27:18.023Z,10.1129
2019-04-20T21:29:29.923Z,9.3626
2019-04-20T21:31:32.771Z,8.8659
2019-04-20T21:33:38.300Z,8.2464
2019-04-20T21:35:48.584Z,7.8084
2019-04-20T21:37:58.875Z,8.1182
2019-04-20T21:40:11.619Z,8.1022
2019-04-20T21:42:14.468Z,7.6936
2019-04-20T21:44:24.340Z,7.5120
2019-04-20T21:46:29.835Z,9.2210
2019-04-20T21:48:54.578Z,9.6162
2019-04-20T21:51:07.025Z,10.0996
2019-04-20T21:52:58.699Z,9.7871
2019-04-20T21:55:02.108Z,9.1089
2019-04-20T21:57:10.981Z,8.4440
2019-04-20T21:59:24.133Z,8.9380
2019-04-20T22:01:33.354Z,8.6683
2019-04-20T22:03:34.333Z,9.2638
2019-04-20T22:05:38.164Z,9.0955
2019-04-20T22:07:41.679Z,8.7537
2019-04-20T22:09:49.664Z,8.4867
2019-04-20T22:11:54.256Z,8.0194
2019-04-20T22:14:01.285Z,7.9900
2019-04-20T22:16:10.335Z,8.1182
2019-04-20T22:18:20.088Z,7.9072
2019-04-20T22:20:34.600Z,7.7924
2019-04-20T22:22:50.850Z,7.5547
2019-04-20T22:24:55.991Z,9.3759
2019-04-20T22:27:00.305Z,9.3492
2019-04-20T22:28:58.624Z,9.4480
2019-04-20T22:31:02.269Z,9.3759
2019-04-20T22:33:05.891Z,10.6657
2019-04-20T22:35:14.185Z,10.2251
2019-04-20T22:37:23.778Z,10.1690
2019-04-20T22:39:33.378Z,9.8459
2019-04-20T22:41:36.260Z,9.1222
2019-04-20T22:43:40.319Z,8.5428
2019-04-20T22:45:47.390Z,7.9900
2019-04-20T22:47:59.393Z,8.0888
2019-04-20T22:50:21.889Z,7.9339
2019-04-20T22:52:26.723Z,7.8084
2019-04-20T22:54:36.255Z,8.3024
2019-04-20T22:56:46.140Z,8.3585
2019-04-20T22:58:48.945Z,8.0621
2019-04-20T23:00:51.970Z,8.1182
2019-04-20T23:02:54.748Z,7.5681
2019-04-20T23:04:58.178Z,7.6108
2019-04-20T23:07:02.984Z,7.5547
2019-04-20T23:09:10.296Z,7.3545
2019-04-20T23:11:21.396Z,7.6375
2019-04-20T23:13:29.451Z,7.7657
2019-04-20T23:15:32.285Z,7.7924
2019-04-20T23:17:40.720Z,7.6802
2019-04-20T23:19:49.416Z,7.3999
2019-04-20T23:21:59.255Z,7.6242
2019-04-20T23:24:06.395Z,7.5814
2019-04-20T23:26:11.435Z,7.2824
2019-04-20T23:28:18.006Z,7.8485
2019-04-20T23:30:29.149Z,7.7096
2019-04-20T23:32:33.863Z,7.6802
2019-04-20T23:34:38.918Z,7.5254
2019-04-20T23:36:47.087Z,7.6669
2019-04-20T23:38:54.728Z,7.8351
2019-04-20T23:40:59.684Z,7.9633
2019-04-20T23:43:03.088Z,7.7363
2019-04-20T23:45:07.500Z,7.7924
2019-04-20T23:47:15.057Z,7.7924
2019-04-20T23:49:27.182Z,8.0755
2019-04-20T23:51:49.590Z,7.8218
2019-04-20T23:53:52.233Z,7.6242
2019-04-20T23:55:46.246Z,7.5681
2019-04-20T23:57:58.058Z,7.3545
